Skip Navigation LinksHome page > Weather > Current weather Skip Navigation Links

Current Weather

Baltimore-Washington Intl, Baltimore

For information only: do not use for flight planning or navigation.
Latest weather
Observation time Sunday, September 20, 2020 8:54 AM EDT
Local time Sunday, September 20, 2020 9:50 AM EDT
Flight conditions Visual Meteorological Conditions
Winds
Wind direction variable
Wind speed 6 mph
Visibility 10 mi.
Sky condition
Ceiling unlimited
Cloud layer few clouds 5,500 ft.
Cloud layer few clouds 25,000 ft.
Temperature 55°F
Dewpoint 39°F
Altimeter 30.46 in.Hg
Derived measurements
Relative humidity 55%
Density altitude -609 ft.
Sea-level pressure 30.46 in.Hg
Remarks
Automated weather observing station with precipitation discriminator.
METAR KBWI 201254Z VRB05KT 10SM FEW055 FEW250 13/04 A3046 RMK AO2 SLP315 T01280039

Settings

Location code

InnerDrive.Weather 4.0.6770.0 Release CLR 4.0.30319.42000
Copyright ©2018 Inner Drive Technology. All rights reserved. Portions Copyright ©1986-2018 David Braverman.

Find weather

Site navigation


Skip Navigation Links

Place info

Page info

PayPal - The safer, easier way to pay online!

Return home.

Copyright ©2020 Inner Drive Technology. Purveyors of fine, hand-crafted computer software. Page printed 2020-09-20T13:50:28 UTC.